createdAt,value
2022-10-07T00:02:14.930Z,18.12795
2022-10-07T00:07:16.447Z,18.11647
2022-10-07T00:12:18.113Z,17.838864
2022-10-07T00:17:19.771Z,18.393208
2022-10-07T00:22:21.425Z,18.342634
2022-10-07T00:27:22.877Z,18.027766
2022-10-07T00:32:24.393Z,17.794288
2022-10-07T00:37:25.895Z,17.825186
2022-10-07T00:42:27.390Z,17.657832
2022-10-07T00:47:29.223Z,17.147698
2022-10-07T00:52:30.899Z,17.2446
2022-10-07T00:57:32.613Z,18.67973
2022-10-07T01:02:34.432Z,18.414472
2022-10-07T01:07:35.932Z,19.137784
2022-10-07T01:12:37.557Z,19.401902
2022-10-07T01:17:39.495Z,18.938474
2022-10-07T01:22:40.931Z,19.014124
2022-10-07T01:27:43.126Z,18.906694
2022-10-07T01:32:45.234Z,18.636578
2022-10-07T01:37:47.430Z,17.963066
2022-10-07T01:42:49.452Z,17.577324
2022-10-07T01:47:51.568Z,18.266984
2022-10-07T01:52:53.299Z,17.51333
2022-10-07T01:57:55.015Z,17.46353
2022-10-07T02:02:56.800Z,17.695868
2022-10-07T02:07:58.442Z,17.088032
2022-10-07T02:12:59.987Z,17.600528
2022-10-07T02:18:01.629Z,17.54933
2022-10-07T02:23:03.453Z,17.306584
2022-10-07T02:28:05.042Z,17.360794
2022-10-07T02:33:06.739Z,17.153872
2022-10-07T02:38:08.391Z,16.826832
2022-10-07T02:43:09.965Z,17.099418
2022-10-07T02:48:11.597Z,16.3838
2022-10-07T02:53:13.352Z,16.796016
2022-10-07T02:58:15.103Z,16.725318
2022-10-07T03:03:17.179Z,16.965242
2022-10-07T03:08:18.641Z,16.38266
2022-10-07T03:13:20.430Z,16.702454
2022-10-07T03:18:22.400Z,16.43721
2022-10-07T03:23:24.137Z,16.596096
2022-10-07T03:28:25.946Z,15.74888
2022-10-07T03:33:27.725Z,16.397044
2022-10-07T03:38:29.533Z,16.182102
2022-10-07T03:43:31.350Z,16.15518
2022-10-07T03:48:33.302Z,16.530324
2022-10-07T03:53:35.073Z,16.167094
2022-10-07T03:58:36.789Z,15.896286
2022-10-07T04:03:38.777Z,15.72972
2022-10-07T04:08:40.507Z,15.93724
2022-10-07T04:13:42.287Z,16.024098
2022-10-07T04:18:44.482Z,16.582404
2022-10-07T04:23:46.267Z,16.33385
2022-10-07T04:28:48.126Z,16.949352
2022-10-07T04:33:50.187Z,16.735374
2022-10-07T04:38:51.925Z,17.029494
2022-10-07T04:43:57.535Z,17.642376
2022-10-07T04:48:59.898Z,17.858458
2022-10-07T04:54:01.653Z,17.985836
2022-10-07T04:59:03.144Z,18.22329
2022-10-07T05:04:04.790Z,17.89572
2022-10-07T05:09:06.448Z,18.238732
2022-10-07T05:14:08.140Z,17.851484
2022-10-07T05:19:10.304Z,18.69988
2022-10-07T05:24:11.943Z,19.608648
2022-10-07T05:29:13.567Z,19.855736
2022-10-07T05:34:15.411Z,20.610734
2022-10-07T05:39:17.230Z,21.196112
2022-10-07T05:44:18.863Z,21.13741
2022-10-07T05:49:20.859Z,22.110648
2022-10-07T05:54:22.491Z,22.084798
2022-10-07T05:59:24.184Z,22.943088
2022-10-07T06:04:26.043Z,21.5856
2022-10-07T06:09:28.013Z,21.699476
2022-10-07T06:14:29.819Z,22.278124
2022-10-07T06:19:31.891Z,23.264118
2022-10-07T06:24:33.689Z,23.78652
2022-10-07T06:29:35.536Z,24.006076
2022-10-07T06:34:37.295Z,25.07684
2022-10-07T06:39:39.008Z,25.06669
2022-10-07T06:44:40.741Z,24.908224
2022-10-07T06:49:42.725Z,25.224952
2022-10-07T06:54:44.490Z,25.304606
2022-10-07T06:59:46.249Z,26.358652
2022-10-07T07:04:48.496Z,26.953178
2022-10-07T07:09:50.337Z,28.019152
2022-10-07T07:14:52.081Z,28.125742
2022-10-07T07:19:54.216Z,28.674146
2022-10-07T07:24:55.857Z,29.36165
2022-10-07T07:29:57.596Z,28.921982
2022-10-07T07:34:59.233Z,29.07453
2022-10-07T07:40:00.894Z,29.306246
2022-10-07T07:45:02.493Z,29.115118
2022-10-07T07:50:04.247Z,29.488784
2022-10-07T07:55:05.688Z,30.243786
2022-10-07T08:00:07.255Z,30.534026
2022-10-07T08:05:09.089Z,30.07981
2022-10-07T08:10:10.872Z,30.248874
2022-10-07T08:15:12.402Z,30.929974
2022-10-07T08:20:14.094Z,31.075644
2022-10-07T08:25:15.914Z,31.035478
2022-10-07T08:30:17.427Z,31.923164
2022-10-07T08:35:19.075Z,31.233446
2022-10-07T08:40:20.690Z,31.492316
2022-10-07T08:45:22.428Z,31.83883
2022-10-07T08:50:24.394Z,31.626518
2022-10-07T08:55:26.257Z,32.308298
2022-10-07T09:00:28.034Z,33.422678
2022-10-07T09:05:30.232Z,32.511354
2022-10-07T09:10:31.892Z,33.179672
2022-10-07T09:15:33.702Z,32.192438
2022-10-07T09:20:35.764Z,32.465218
2022-10-07T09:25:37.435Z,32.535412
2022-10-07T09:30:39.054Z,32.339848
2022-10-07T09:35:40.834Z,32.826754
2022-10-07T09:40:42.560Z,32.666062
2022-10-07T09:45:44.314Z,32.630102
2022-10-07T09:50:47.001Z,32.545998
2022-10-07T09:55:48.749Z,33.292886
2022-10-07T10:00:50.428Z,33.000676
2022-10-07T10:05:52.398Z,32.933344
2022-10-07T10:10:54.161Z,32.961826
2022-10-07T10:15:55.979Z,33.928544
2022-10-07T10:20:57.834Z,33.109696
2022-10-07T10:25:59.629Z,32.587712
2022-10-07T10:31:01.442Z,33.525972
2022-10-07T10:36:03.113Z,32.977488
2022-10-07T10:41:04.622Z,33.92215
2022-10-07T10:46:06.190Z,33.831874
2022-10-07T10:51:08.198Z,33.11633
2022-10-07T10:56:10.031Z,32.916138
2022-10-07T11:01:11.814Z,32.586612
2022-10-07T11:06:15.660Z,33.624622
2022-10-07T11:11:18.456Z,33.429288
2022-10-07T11:16:20.231Z,32.905758
2022-10-07T11:21:22.513Z,33.57717
2022-10-07T11:26:24.274Z,33.626618
2022-10-07T11:31:26.108Z,33.477188
2022-10-07T11:36:28.107Z,32.884574
2022-10-07T11:41:29.832Z,33.484912
2022-10-07T11:46:31.720Z,33.136182
2022-10-07T11:51:33.834Z,33.287594
2022-10-07T11:56:35.441Z,33.099546
2022-10-07T12:01:37.222Z,33.733004
2022-10-07T12:06:38.712Z,34.136472
2022-10-07T12:11:40.160Z,33.310554
2022-10-07T12:16:42.458Z,33.477636
2022-10-07T12:21:44.267Z,33.20836
2022-10-07T12:26:45.987Z,33.303048
2022-10-07T12:31:47.815Z,32.717274
2022-10-07T12:36:50.012Z,33.322902
2022-10-07T12:41:51.733Z,33.638968
2022-10-07T12:46:53.569Z,32.729636
2022-10-07T12:51:55.877Z,33.022958
2022-10-07T12:56:57.636Z,33.548918
2022-10-07T13:01:59.561Z,32.204558
2022-10-07T13:07:01.514Z,31.533824
2022-10-07T13:12:03.151Z,32.45595
2022-10-07T13:17:04.869Z,31.925134
2022-10-07T13:22:06.808Z,32.12002
2022-10-07T13:27:08.665Z,32.334108
2022-10-07T13:32:10.730Z,31.862672
2022-10-07T13:37:12.417Z,32.5641
2022-10-07T13:42:18.019Z,32.031506
2022-10-07T13:47:22.387Z,30.690704
2022-10-07T13:52:24.560Z,31.035466
2022-10-07T13:57:26.644Z,31.249554
2022-10-07T14:02:28.569Z,31.634228
2022-10-07T14:07:30.710Z,31.420816
2022-10-07T14:12:32.433Z,31.393
2022-10-07T14:17:34.193Z,31.170972
2022-10-07T14:22:36.144Z,31.202766
2022-10-07T14:27:37.901Z,30.20206
2022-10-07T14:32:39.630Z,29.820686
2022-10-07T14:37:41.564Z,30.2343
2022-10-07T14:42:43.580Z,29.617426
2022-10-07T14:47:45.507Z,29.681216
2022-10-07T14:52:47.756Z,29.673482
2022-10-07T14:57:49.748Z,29.80082
2022-10-07T15:02:51.464Z,29.509046
2022-10-07T15:07:53.214Z,29.863946
2022-10-07T15:12:55.002Z,29.276856
2022-10-07T15:17:56.731Z,29.45166
2022-10-07T15:22:58.846Z,29.253462
2022-10-07T15:28:00.679Z,29.00739
2022-10-07T15:33:02.374Z,29.008042
2022-10-07T15:38:04.032Z,28.330266
2022-10-07T15:43:05.487Z,28.351692
2022-10-07T15:48:07.276Z,28.389416
2022-10-07T15:53:08.984Z,28.232714
2022-10-07T15:58:10.738Z,27.9211
2022-10-07T16:03:12.220Z,27.553622
2022-10-07T16:08:14.085Z,27.28284
2022-10-07T16:13:15.588Z,26.8326
2022-10-07T16:18:17.369Z,26.786056
2022-10-07T16:23:19.516Z,26.495842
2022-10-07T16:28:21.288Z,26.03153
2022-10-07T16:33:22.957Z,26.35351
2022-10-07T16:38:24.663Z,25.74551
2022-10-07T16:43:26.693Z,26.05293
2022-10-07T16:48:28.415Z,26.414424
2022-10-07T16:53:30.571Z,26.70001
2022-10-07T16:58:32.204Z,26.48173
2022-10-07T17:03:33.968Z,26.80109
2022-10-07T17:08:40.489Z,26.167932
2022-10-07T17:13:44.694Z,24.18685
2022-10-07T17:18:46.464Z,22.745786
2022-10-07T17:23:48.796Z,21.703316
2022-10-07T17:28:50.603Z,21.593484
2022-10-07T17:33:52.517Z,20.92985
2022-10-07T17:38:53.982Z,20.710742
2022-10-07T17:43:55.809Z,20.566226
2022-10-07T17:48:57.608Z,20.199196
2022-10-07T17:53:59.702Z,19.290496
2022-10-07T17:59:01.238Z,19.204682
2022-10-07T18:04:02.880Z,18.99434
2022-10-07T18:09:04.806Z,18.953808
2022-10-07T18:14:06.292Z,18.98533
2022-10-07T18:19:07.986Z,18.636212
2022-10-07T18:24:09.899Z,18.18364
2022-10-07T18:29:11.361Z,18.079996
2022-10-07T18:34:13.062Z,18.081244
2022-10-07T18:39:15.174Z,17.677848
2022-10-07T18:44:16.744Z,18.49038
2022-10-07T18:49:18.512Z,18.31384
2022-10-07T18:54:20.596Z,17.734338
2022-10-07T18:59:22.051Z,17.316464
2022-10-07T19:04:23.922Z,17.29254
2022-10-07T19:09:25.527Z,17.796202
2022-10-07T19:14:27.347Z,17.58259
2022-10-07T19:19:28.811Z,17.852448
2022-10-07T19:24:30.575Z,17.214502
2022-10-07T19:29:32.277Z,17.728164
2022-10-07T19:34:33.776Z,18.019448
2022-10-07T19:39:35.503Z,17.582956
2022-10-07T19:44:37.010Z,18.248964
2022-10-07T19:49:38.793Z,17.405534
2022-10-07T19:54:40.585Z,17.295634
2022-10-07T19:59:42.311Z,17.065956
2022-10-07T20:04:44.082Z,17.297046
2022-10-07T20:09:45.860Z,17.695584
2022-10-07T20:14:47.598Z,16.873336
2022-10-07T20:19:49.338Z,17.151132
2022-10-07T20:24:51.500Z,16.810142
2022-10-07T20:29:53.254Z,16.86134
2022-10-07T20:34:55.053Z,17.113802
2022-10-07T20:39:56.851Z,16.95322
2022-10-07T20:44:58.586Z,17.22377
2022-10-07T20:50:00.365Z,16.820998
2022-10-07T20:55:02.101Z,16.730788
2022-10-07T21:00:03.773Z,16.264728
2022-10-07T21:05:05.351Z,16.178046
2022-10-07T21:10:07.121Z,16.377084
2022-10-07T21:15:08.799Z,16.663782
2022-10-07T21:20:10.535Z,16.388116
2022-10-07T21:25:12.516Z,15.880928
2022-10-07T21:30:14.213Z,15.718594
2022-10-07T21:35:15.939Z,15.233388
2022-10-07T21:40:17.563Z,15.653814
2022-10-07T21:45:19.312Z,15.893642
2022-10-07T21:50:21.422Z,15.481684
2022-10-07T21:55:23.410Z,15.089062
2022-10-07T22:00:25.269Z,15.354144
2022-10-07T22:05:27.047Z,14.964874
2022-10-07T22:10:29.053Z,15.193046
2022-10-07T22:15:30.798Z,15.31425
2022-10-07T22:20:32.806Z,15.083418
2022-10-07T22:25:34.769Z,14.508354
2022-10-07T22:30:36.607Z,14.888694
2022-10-07T22:35:38.451Z,14.647374
2022-10-07T22:40:40.567Z,14.354422
2022-10-07T22:45:42.293Z,14.400938
2022-10-07T22:50:44.020Z,14.9135
2022-10-07T22:55:47.135Z,14.794618
2022-10-07T23:00:48.877Z,13.54862
2022-10-07T23:05:50.532Z,14.002686
2022-10-07T23:10:52.282Z,14.076992
2022-10-07T23:15:54.071Z,13.73964
2022-10-07T23:20:55.868Z,13.497356
2022-10-07T23:25:57.851Z,14.006648
2022-10-07T23:30:59.761Z,13.488088
2022-10-07T23:36:01.867Z,13.719964
2022-10-07T23:41:03.770Z,13.472808
2022-10-07T23:46:05.731Z,13.748908
2022-10-07T23:51:07.290Z,13.180032
2022-10-07T23:56:09.241Z,13.820406
